createdAt,value
2022-09-20T00:04:10.920Z,99.9
2022-09-20T00:10:02.896Z,100
2022-09-20T00:15:54.289Z,100
2022-09-20T00:21:48.022Z,100
2022-09-20T00:27:38.579Z,100
2022-09-20T00:33:28.690Z,100
2022-09-20T00:39:17.503Z,100
2022-09-20T00:45:11.784Z,100
2022-09-20T00:51:03.040Z,100
2022-09-20T00:56:55.564Z,100
2022-09-20T01:02:48.237Z,100
2022-09-20T01:08:39.523Z,100
2022-09-20T01:14:32.052Z,100
2022-09-20T01:20:23.386Z,100
2022-09-20T01:26:17.732Z,100
2022-09-20T01:32:09.498Z,100
2022-09-20T01:38:02.837Z,100
2022-09-20T01:43:55.067Z,100
2022-09-20T01:49:47.143Z,100
2022-09-20T01:55:39.782Z,100
2022-09-20T02:01:32.069Z,100
2022-09-20T02:07:25.098Z,100
2022-09-20T02:13:17.468Z,100
2022-09-20T02:19:12.063Z,100
2022-09-20T02:25:04.481Z,100
2022-09-20T02:30:56.068Z,100
2022-09-20T02:36:46.402Z,100
2022-09-20T02:42:38.500Z,100
2022-09-20T02:48:30.212Z,100
2022-09-20T02:54:22.933Z,100
2022-09-20T03:00:14.806Z,100
2022-09-20T03:06:06.692Z,100
2022-09-20T03:11:58.991Z,100
2022-09-20T03:17:51.254Z,100
2022-09-20T03:23:44.092Z,100
2022-09-20T03:29:35.955Z,100
2022-09-20T03:35:28.613Z,100
2022-09-20T03:41:20.246Z,100
2022-09-20T09:00:50.541Z,86.1
2022-09-20T09:06:51.421Z,88.2
2022-09-20T09:12:53.094Z,83.1
2022-09-20T09:25:06.162Z,85
2022-09-20T09:31:03.226Z,85.5
2022-09-20T09:37:16.635Z,82.9
2022-09-20T09:43:18.624Z,80.4
2022-09-20T09:49:26.951Z,77.9
2022-09-20T09:55:32.895Z,79
2022-09-20T10:01:34.909Z,73.2
2022-09-20T10:07:29.429Z,75.2
2022-09-20T10:13:28.800Z,73.1
2022-09-20T10:19:39.809Z,73.8
2022-09-20T10:25:55.394Z,73.9
2022-09-20T10:38:24.285Z,76.1
2022-09-20T10:44:21.926Z,72.3
2022-09-20T11:02:28.968Z,73.8
2022-09-20T11:14:54.291Z,74.9
2022-09-20T11:20:57.401Z,75
2022-09-20T11:26:53.707Z,75.1
2022-09-20T11:32:47.275Z,75.5
2022-09-20T11:38:55.926Z,75.2
2022-09-20T11:51:31.821Z,76.7
2022-09-20T11:57:38.800Z,77.4
2022-09-20T12:03:36.720Z,74.7
2022-09-20T12:09:29.739Z,76
2022-09-20T12:15:21.562Z,76.6
2022-09-20T12:21:23.345Z,75.9
2022-09-20T12:27:16.362Z,68.7
2022-09-20T12:33:09.288Z,69.1
2022-09-20T12:40:14.372Z,69.8
2022-09-20T12:46:12.123Z,72.3
2022-09-20T12:52:02.479Z,72.7
2022-09-20T12:57:52.826Z,74.1
2022-09-20T13:03:43.310Z,76.2
2022-09-20T13:09:33.775Z,72.2
2022-09-20T13:15:25.897Z,72
2022-09-20T13:21:16.676Z,70.5
2022-09-20T13:27:07.399Z,71.3
2022-09-20T13:32:57.833Z,69.2
2022-09-20T13:38:48.356Z,70.2
2022-09-20T13:44:39.515Z,70.5
2022-09-20T13:50:30.380Z,69.4
2022-09-20T13:56:20.672Z,68.7
2022-09-20T14:02:11.833Z,68.9
2022-09-20T14:08:02.768Z,68.5
2022-09-20T14:13:53.405Z,69.4
2022-09-20T14:19:43.734Z,69.2
2022-09-20T14:25:33.959Z,71.4
2022-09-20T14:31:24.926Z,71.7
2022-09-20T14:37:16.420Z,71.5
2022-09-20T14:43:07.317Z,72.5
2022-09-20T14:48:58.124Z,70.9
2022-09-20T14:54:49.280Z,70.3
2022-09-20T15:00:41.228Z,70.6
2022-09-20T15:06:32.719Z,70.9
2022-09-20T15:12:23.486Z,72.1
2022-09-20T15:18:13.455Z,73.2
2022-09-20T15:24:04.233Z,72.9
2022-09-20T15:29:58.552Z,74.2
2022-09-20T15:35:49.907Z,74.7
2022-09-20T15:41:38.972Z,73.2
2022-09-20T15:47:29.900Z,72.2
2022-09-20T15:53:21.203Z,71.5
2022-09-20T15:59:13.722Z,69.8
2022-09-20T16:05:02.952Z,69.7
2022-09-20T16:10:52.077Z,71.5
2022-09-20T16:16:42.668Z,72
2022-09-20T16:22:32.652Z,72.4
2022-09-20T16:28:22.134Z,73.2
2022-09-20T16:34:11.125Z,72.4
2022-09-20T16:40:00.420Z,74.1
2022-09-20T16:45:54.075Z,74.4
2022-09-20T16:51:45.250Z,75.2
2022-09-20T16:57:35.978Z,75.9
2022-09-20T17:03:26.203Z,75
2022-09-20T17:09:17.366Z,75.4
2022-09-20T17:15:10.737Z,77
2022-09-20T17:21:05.400Z,79.5
2022-09-20T17:26:57.563Z,80.9
2022-09-20T17:32:49.014Z,82.3
2022-09-20T17:38:39.455Z,84.5
2022-09-20T17:44:29.852Z,84.6
2022-09-20T17:50:21.224Z,85.4
2022-09-20T17:56:11.504Z,85.9
2022-09-20T18:02:02.022Z,87.3
2022-09-20T18:07:53.193Z,87.3
2022-09-20T18:13:44.810Z,87.5
2022-09-20T18:19:35.302Z,87.1
2022-09-20T18:25:25.897Z,86
2022-09-20T18:31:15.893Z,84.3
2022-09-20T18:37:10.048Z,87.1
2022-09-20T18:43:06.524Z,89.4
2022-09-20T18:49:02.742Z,90.9
2022-09-20T18:55:18.951Z,90.6
2022-09-20T19:01:50.170Z,90.8
2022-09-20T19:07:46.344Z,91.4
2022-09-20T19:13:39.452Z,92.3
2022-09-20T19:19:40.659Z,92.9
2022-09-20T19:25:41.966Z,91.1
2022-09-20T19:31:37.612Z,91
2022-09-20T19:37:37.488Z,91.5
2022-09-20T19:43:30.638Z,91.6
2022-09-20T19:49:21.882Z,91.6
2022-09-20T19:55:14.736Z,92.9
2022-09-20T20:01:35.326Z,93.2
2022-09-20T20:08:21.350Z,93.5
2022-09-20T20:14:42.064Z,93.4
2022-09-20T20:21:32.867Z,92.7
2022-09-20T20:27:50.696Z,93.3
2022-09-20T20:34:45.892Z,93.4
2022-09-20T20:41:10.824Z,95
2022-09-20T20:47:41.413Z,95.6
2022-09-20T20:54:27.682Z,95.4
2022-09-20T21:01:42.098Z,95.5
2022-09-20T21:14:55.930Z,97.2
2022-09-20T21:21:15.888Z,96
2022-09-20T21:27:27.704Z,96.2
2022-09-20T21:33:23.289Z,95.2
2022-09-20T21:40:20.568Z,96.9
2022-09-20T21:47:07.811Z,96.4
2022-09-20T21:54:28.874Z,99.2
2022-09-20T22:16:46.775Z,99.4
2022-09-20T22:22:50.291Z,96.5
2022-09-20T22:35:20.102Z,97.1
